Time;durP1;ratioP1;P1;durP2;ratioP2;P2;SDS_P1;SDS_P2;PMS_P1;PMS_P2;Temp;Humidity;BMP_temperature;BMP_pressure;BME280_temperature;BME280_humidity;BME280_pressure;Samples;Min_cycle;Max_cycle;Signal;HPM_P1;HPM_P2
2022/09/08 00:01:18;;;;;;;;;;;;;;;17.91;100.00;-25571.25;5072392;28;20395;-84
2022/09/08 00:03:50;;;;;;;;;;;;;;;17.90;100.00;-25571.09;5064278;28;19916;-84
2022/09/08 00:06:16;;;;;;;;;;;;;;;17.89;100.00;-25570.81;5051830;28;19917;-82
2022/09/08 00:08:43;;;;;;;;;;;;;;;17.92;100.00;-25571.53;5052333;28;19935;-82
2022/09/08 00:11:10;;;;;;;;;;;;;;;17.97;100.00;-25572.84;5052576;28;19924;-82
2022/09/08 00:13:45;;;;;;;;;;;;;;;18.00;100.00;-25573.72;5052156;28;19916;-81
2022/09/08 00:16:10;;;;;;;;;;;;;;;18.06;100.00;-25575.44;5051481;28;19917;-82
2022/09/08 00:18:36;;;;;;;;;;;;;;;18.09;100.00;-25576.31;5052241;28;20007;-85
2022/09/08 00:21:02;;;;;;;;;;;;;;;18.12;100.00;-25577.31;5054746;28;19924;-83
2022/09/08 00:23:30;;;;;;;;;;;;;;;18.18;100.00;-25578.78;5071761;28;19917;-82
2022/09/08 00:25:55;;;;;;;;;;;;;;;18.27;100.00;-25581.53;5037185;28;20057;-82
2022/09/08 00:28:20;;;;;;;;;;;;;;;18.27;100.00;-25581.38;5051697;28;19971;-83
2022/09/08 00:30:46;;;;;;;;;;;;;;;18.30;100.00;-25582.41;5052903;28;19927;-82
2022/09/08 00:33:11;;;;;;;;;;;;;;;18.26;100.00;-25581.22;5063599;28;20015;-82
2022/09/08 00:35:41;;;;;;;;;;;;;;;18.19;100.00;-25579.06;5072233;28;19923;-80
2022/09/08 00:38:06;;;;;;;;;;;;;;;18.19;100.00;-25579.22;5071835;28;19924;-84
2022/09/08 00:40:40;;;;;;;;;;;;;;;18.20;100.00;-25579.50;5071923;28;20365;-83
2022/09/08 00:43:11;;;;;;;;;;;;;;;18.14;100.00;-25577.75;5065809;28;19916;-84
2022/09/08 00:45:37;;;;;;;;;;;;;;;18.24;100.00;-25580.66;5061869;28;19942;-79
2022/09/08 00:48:08;;;;;;;;;;;;;;;18.26;100.00;-25581.22;5072888;28;19939;-82
2022/09/08 00:50:34;;;;;;;;;;;;;;;18.27;100.00;-25581.38;5074215;28;20011;-81
2022/09/08 00:53:03;;;;;;;;;;;;;;;18.22;100.00;-25580.06;5073228;28;19928;-82
2022/09/08 00:55:29;;;;;;;;;;;;;;;18.15;100.00;-25578.06;5068215;28;19920;-81
2022/09/08 00:57:55;;;;;;;;;;;;;;;18.06;100.00;-25575.44;5063698;28;19962;-82
2022/09/08 01:00:20;;;;;;;;;;;;;;;17.99;100.00;-25573.56;5070729;28;19920;-80
2022/09/08 01:02:47;;;;;;;;;;;;;;;17.90;100.00;-25570.97;5063666;28;19920;-79
2022/09/08 01:05:17;;;;;;;;;;;;;;;17.93;100.00;-25571.97;5074094;28;19961;-82
2022/09/08 01:13:35;;;;;;;;;;;;;;;17.92;100.00;-25571.53;5072267;28;19967;-82
2022/09/08 01:16:01;;;;;;;;;;;;;;;17.93;100.00;-25571.97;5074760;28;19970;-82
2022/09/08 01:18:26;;;;;;;;;;;;;;;17.90;100.00;-25571.09;5065326;28;20368;-80
2022/09/08 01:21:04;;;;;;;;;;;;;;;17.94;100.00;-25572.25;5074393;28;20372;-83
2022/09/08 01:23:59;;;;;;;;;;;;;;;17.86;100.00;-25569.94;5074203;28;20248;-80
2022/09/08 01:26:37;;;;;;;;;;;;;;;17.77;100.00;-25567.47;5074458;28;20654;-80
2022/09/08 01:29:09;;;;;;;;;;;;;;;17.83;100.00;-25569.06;5059491;28;19920;-80
2022/09/08 01:31:35;;;;;;;;;;;;;;;17.77;100.00;-25567.47;5054586;28;19917;-80
2022/09/08 01:34:02;;;;;;;;;;;;;;;17.75;100.00;-25566.91;5055395;28;19927;-80
2022/09/08 01:36:27;;;;;;;;;;;;;;;17.74;100.00;-25566.59;5054599;28;19921;-80
2022/09/08 01:38:52;;;;;;;;;;;;;;;17.80;100.00;-25568.06;5072555;28;19965;-79
2022/09/08 01:41:18;;;;;;;;;;;;;;;17.86;100.00;-25569.78;5074148;28;19927;-80
2022/09/08 01:43:45;;;;;;;;;;;;;;;17.77;100.00;-25567.34;5074260;28;19942;-79
2022/09/08 01:46:10;;;;;;;;;;;;;;;17.87;100.00;-25570.22;5074538;28;19916;-81
2022/09/08 01:48:36;;;;;;;;;;;;;;;17.86;100.00;-25569.78;5074016;28;19927;-79
2022/09/08 01:51:03;;;;;;;;;;;;;;;17.86;100.00;-25569.94;5073947;28;20389;-80
2022/09/08 01:53:30;;;;;;;;;;;;;;;17.92;100.00;-25571.69;5074005;28;19924;-82
2022/09/08 01:55:55;;;;;;;;;;;;;;;17.93;100.00;-25571.97;5066847;28;19925;-81
2022/09/08 01:58:20;;;;;;;;;;;;;;;17.96;100.00;-25572.69;5053836;28;20388;-81
2022/09/08 02:00:46;;;;;;;;;;;;;;;17.96;100.00;-25572.56;5053733;28;20381;-82
2022/09/08 02:03:46;;;;;;;;;;;;;;;17.81;100.00;-25568.50;5065630;28;19996;-82
2022/09/08 02:06:11;;;;;;;;;;;;;;;17.92;100.00;-25571.69;5073763;28;19924;-80
2022/09/08 02:08:37;;;;;;;;;;;;;;;17.88;100.00;-25570.53;5073398;28;19924;-82
2022/09/08 02:11:03;;;;;;;;;;;;;;;17.94;100.00;-25572.25;5062295;28;19913;-83
2022/09/08 02:13:29;;;;;;;;;;;;;;;17.92;100.00;-25571.53;5055006;28;19924;-85
2022/09/08 02:16:02;;;;;;;;;;;;;;;17.89;100.00;-25570.66;5054137;28;19917;-80
2022/09/08 02:18:28;;;;;;;;;;;;;;;17.90;100.00;-25571.09;5068777;28;20323;-82
2022/09/08 02:20:59;;;;;;;;;;;;;;;17.91;100.00;-25571.41;5073773;28;19917;-83
2022/09/08 02:23:48;;;;;;;;;;;;;;;17.97;100.00;-25572.84;5073436;28;19919;-83
2022/09/08 02:26:20;;;;;;;;;;;;;;;17.99;100.00;-25573.41;5073590;28;19916;-82
2022/09/08 02:28:57;;;;;;;;;;;;;;;18.02;100.00;-25574.28;5066796;28;19921;-82
2022/09/08 02:31:23;;;;;;;;;;;;;;;18.04;100.00;-25575.00;5033379;28;19967;-80
2022/09/08 02:33:56;;;;;;;;;;;;;;;18.06;100.00;-25575.59;5033105;28;19924;-81
2022/09/08 02:36:21;;;;;;;;;;;;;;;18.04;100.00;-25575.00;5033027;28;19932;-84
2022/09/08 02:38:50;;;;;;;;;;;;;;;17.91;100.00;-25571.41;5033108;28;19917;-82
2022/09/08 02:41:16;;;;;;;;;;;;;;;18.00;100.00;-25573.72;5032934;28;20289;-82
2022/09/08 02:43:54;;;;;;;;;;;;;;;17.75;100.00;-25566.75;5034513;28;19928;-83
2022/09/08 02:46:19;;;;;;;;;;;;;;;17.62;100.00;-25563.00;5034615;28;20436;-83
2022/09/08 02:48:45;;;;;;;;;;;;;;;17.52;100.00;-25560.38;5032288;28;20068;-84
2022/09/08 02:51:11;;;;;;;;;;;;;;;17.37;100.00;-25556.19;5031949;28;19929;-82
2022/09/08 02:53:40;;;;;;;;;;;;;;;17.45;100.00;-25558.34;5049148;28;19917;-84
2022/09/08 02:56:05;;;;;;;;;;;;;;;17.40;100.00;-25557.06;5033359;28;20376;-83
2022/09/08 02:58:31;;;;;;;;;;;;;;;17.37;100.00;-25556.03;5049938;28;19956;-83
2022/09/08 03:00:56;;;;;;;;;;;;;;;17.20;100.00;-25551.41;5058660;28;19932;-77
2022/09/08 03:03:22;;;;;;;;;;;;;;;17.07;100.00;-25547.63;5051824;28;20073;-83
2022/09/08 03:05:48;;;;;;;;;;;;;;;16.99;100.00;-25545.44;5053088;28;19917;-81
2022/09/08 03:08:14;;;;;;;;;;;;;;;16.93;100.00;-25543.56;5071958;28;19923;-83
2022/09/08 03:10:40;;;;;;;;;;;;;;;16.90;100.00;-25542.69;5072221;28;19939;-83
2022/09/08 03:13:06;;;;;;;;;;;;;;;16.82;100.00;-25540.66;5056715;28;20349;-82
2022/09/08 03:15:31;;;;;;;;;;;;;;;16.80;100.00;-25540.06;5052658;28;19916;-83
2022/09/08 03:17:57;;;;;;;;;;;;;;;16.78;100.00;-25539.34;5069589;28;19963;-82
2022/09/08 03:20:23;;;;;;;;;;;;;;;16.80;100.00;-25540.06;5061843;28;19927;-83
2022/09/08 03:22:50;;;;;;;;;;;;;;;16.81;100.00;-25540.38;5053019;28;19921;-84
2022/09/08 03:25:16;;;;;;;;;;;;;;;16.81;100.00;-25540.38;5062058;28;19916;-85
2022/09/08 03:27:41;;;;;;;;;;;;;;;16.82;100.00;-25540.66;5072525;28;20022;-83
2022/09/08 03:30:08;;;;;;;;;;;;;;;16.73;100.00;-25538.03;5059938;28;19917;-84
2022/09/08 03:32:34;;;;;;;;;;;;;;;16.82;100.00;-25540.66;5061258;28;19928;-83
2022/09/08 03:35:00;;;;;;;;;;;;;;;16.73;100.00;-25537.91;5056528;28;19921;-84
2022/09/08 03:37:25;;;;;;;;;;;;;;;16.75;100.00;-25538.63;5067625;28;19977;-86
2022/09/08 03:39:51;;;;;;;;;;;;;;;16.72;100.00;-25537.75;5073055;28;20009;-86
2022/09/08 03:42:17;;;;;;;;;;;;;;;16.75;100.00;-25538.63;5072774;28;19920;-85
2022/09/08 03:44:43;;;;;;;;;;;;;;;16.76;100.00;-25538.91;5070113;28;19927;-82
2022/09/08 03:47:08;;;;;;;;;;;;;;;16.79;100.00;-25539.63;5068089;28;19921;-81
2022/09/08 03:49:33;;;;;;;;;;;;;;;16.82;100.00;-25540.50;5070694;28;19964;-83
2022/09/08 03:52:00;;;;;;;;;;;;;;;16.88;100.00;-25542.13;5053393;28;19917;-79
2022/09/08 03:57:11;;;;;;;;;;;;;;;16.83;100.00;-25540.81;5073170;28;19942;-83
2022/09/08 03:59:36;;;;;;;;;;;;;;;16.90;100.00;-25542.69;5071781;28;19920;-81
2022/09/08 04:02:02;;;;;;;;;;;;;;;17.01;100.00;-25545.88;5064442;28;19966;-83
2022/09/08 04:04:30;;;;;;;;;;;;;;;16.95;100.00;-25544.16;5053491;28;19916;-79
2022/09/08 04:06:56;;;;;;;;;;;;;;;16.99;100.00;-25545.31;5053314;28;19917;-82
2022/09/08 04:09:21;;;;;;;;;;;;;;;17.02;100.00;-25546.19;5053620;28;19917;-84
2022/09/08 04:11:48;;;;;;;;;;;;;;;16.98;100.00;-25545.00;5055020;28;19964;-82
2022/09/08 04:14:14;;;;;;;;;;;;;;;16.96;100.00;-25544.56;5055004;28;19928;-83
2022/09/08 04:16:43;;;;;;;;;;;;;;;16.96;100.00;-25544.56;5073221;28;19964;-81
2022/09/08 04:19:10;;;;;;;;;;;;;;;16.90;100.00;-25542.84;5073609;28;19920;-83
2022/09/08 04:21:35;;;;;;;;;;;;;;;16.85;100.00;-25541.38;5073311;28;19916;-80
2022/09/08 04:24:03;;;;;;;;;;;;;;;16.91;100.00;-25542.97;5056071;28;19928;-79
2022/09/08 04:26:29;;;;;;;;;;;;;;;17.00;100.00;-25545.59;5056070;28;19917;-79
2022/09/08 04:28:54;;;;;;;;;;;;;;;16.95;100.00;-25544.28;5074321;28;20564;-80
2022/09/08 04:31:20;;;;;;;;;;;;;;;16.91;100.00;-25542.97;5058876;28;19923;-78
2022/09/08 04:33:50;;;;;;;;;;;;;;;16.96;100.00;-25544.56;5046183;28;20305;-77
2022/09/08 04:36:16;;;;;;;;;;;;;;;16.96;100.00;-25544.44;5074968;28;19920;-79
2022/09/08 04:38:42;;;;;;;;;;;;;;;16.94;100.00;-25543.84;5062254;28;19924;-78
2022/09/08 04:41:09;;;;;;;;;;;;;;;16.78;100.00;-25539.34;5055638;28;19916;-78
2022/09/08 04:43:44;;;;;;;;;;;;;;;16.81;100.00;-25540.38;5070923;28;19920;-77
2022/09/08 04:46:10;;;;;;;;;;;;;;;16.85;100.00;-25541.53;5059464;28;20011;-78
2022/09/08 04:48:36;;;;;;;;;;;;;;;16.90;100.00;-25542.84;5056595;28;19917;-77
2022/09/08 04:51:02;;;;;;;;;;;;;;;16.83;100.00;-25540.81;5056202;28;20002;-78
2022/09/08 04:53:35;;;;;;;;;;;;;;;16.84;100.00;-25541.25;5056254;28;20008;-77
2022/09/08 04:56:00;;;;;;;;;;;;;;;16.81;100.00;-25540.22;5076015;28;19970;-78
2022/09/08 04:58:28;;;;;;;;;;;;;;;16.74;100.00;-25538.34;5080715;28;20057;-81
2022/09/08 05:00:53;;;;;;;;;;;;;;;16.73;100.00;-25537.91;5079731;28;19935;-79
2022/09/08 05:03:19;;;;;;;;;;;;;;;16.78;100.00;-25539.50;5076235;28;20291;-78
2022/09/08 05:05:44;;;;;;;;;;;;;;;16.81;100.00;-25540.38;5077745;28;19916;-79
2022/09/08 05:08:09;;;;;;;;;;;;;;;16.76;100.00;-25538.91;5065879;28;19943;-77
2022/09/08 05:10:35;;;;;;;;;;;;;;;16.66;100.00;-25536.00;5068371;28;19920;-80
2022/09/08 05:13:00;;;;;;;;;;;;;;;16.68;100.00;-25536.59;5068465;28;20011;-77
2022/09/08 05:15:26;;;;;;;;;;;;;;;16.65;100.00;-25535.72;5068408;28;19920;-78
2022/09/08 05:17:52;;;;;;;;;;;;;;;16.63;100.00;-25535.16;5060783;28;19917;-81
2022/09/08 05:20:18;;;;;;;;;;;;;;;16.55;100.00;-25532.97;5054488;28;19923;-79
2022/09/08 05:22:47;;;;;;;;;;;;;;;16.51;100.00;-25531.81;5054809;28;20000;-82
2022/09/08 05:25:12;;;;;;;;;;;;;;;16.57;100.00;-25533.53;5063987;28;19952;-83
2022/09/08 05:27:38;;;;;;;;;;;;;;;16.52;100.00;-25532.09;5074648;28;19917;-78
2022/09/08 05:30:03;;;;;;;;;;;;;;;16.39;100.00;-25528.31;5057457;28;20055;-79
2022/09/08 05:32:30;;;;;;;;;;;;;;;16.40;100.00;-25528.75;5061300;28;19951;-77
2022/09/08 05:34:55;;;;;;;;;;;;;;;16.28;100.00;-25525.28;5073496;28;19920;-79
2022/09/08 05:37:20;;;;;;;;;;;;;;;16.40;100.00;-25528.63;5074619;28;19957;-83
2022/09/08 05:39:49;;;;;;;;;;;;;;;16.46;100.00;-25530.50;5066911;28;19932;-79
2022/09/08 05:42:14;;;;;;;;;;;;;;;16.42;100.00;-25529.34;5055972;28;20288;-81
2022/09/08 05:44:39;;;;;;;;;;;;;;;16.49;100.00;-25531.38;5071667;28;19920;-84
2022/09/08 05:47:07;;;;;;;;;;;;;;;16.50;100.00;-25531.53;5051835;28;19946;-82
2022/09/08 05:49:33;;;;;;;;;;;;;;;16.48;99.15;-25530.94;5055162;28;19925;-82
2022/09/08 05:51:58;;;;;;;;;;;;;;;16.45;96.56;-25530.22;5053776;28;20103;-80
2022/09/08 05:54:42;;;;;;;;;;;;;;;16.51;96.35;-25531.94;5074476;28;19928;-81
2022/09/08 05:57:07;;;;;;;;;;;;;;;16.38;94.43;-25528.19;5075303;28;19970;-82
2022/09/08 05:59:32;;;;;;;;;;;;;;;16.20;98.32;-25523.09;5073135;28;19924;-82
2022/09/08 06:02:01;;;;;;;;;;;;;;;16.19;97.09;-25522.66;5056383;28;19916;-83
2022/09/08 06:04:27;;;;;;;;;;;;;;;16.13;93.20;-25521.19;5069322;28;19920;-79
2022/09/08 06:06:52;;;;;;;;;;;;;;;16.21;91.00;-25523.25;5054888;28;20324;-81
2022/09/08 06:09:17;;;;;;;;;;;;;;;16.26;88.14;-25524.69;5052639;28;20245;-83
2022/09/08 06:11:43;;;;;;;;;;;;;;;16.36;87.30;-25527.44;5053047;28;19921;-84
2022/09/08 06:14:10;;;;;;;;;;;;;;;16.29;89.08;-25525.56;5052633;28;19913;-84
2022/09/08 06:16:36;;;;;;;;;;;;;;;16.29;89.42;-25525.56;5053338;28;19917;-84
2022/09/08 06:19:02;;;;;;;;;;;;;;;16.26;91.50;-25524.69;5052662;28;20354;-77
2022/09/08 06:21:28;;;;;;;;;;;;;;;16.34;94.84;-25527.00;5053237;28;19952;-82
2022/09/08 06:24:03;;;;;;;;;;;;;;;16.46;94.30;-25530.34;5052770;28;19924;-81
2022/09/08 06:26:34;;;;;;;;;;;;;;;16.47;94.70;-25530.66;5052374;28;20349;-77
2022/09/08 06:29:15;;;;;;;;;;;;;;;16.43;96.00;-25529.47;5052813;28;20011;-83
2022/09/08 06:31:45;;;;;;;;;;;;;;;16.47;96.28;-25530.78;5053912;28;20477;-83
2022/09/08 06:34:23;;;;;;;;;;;;;;;16.46;97.21;-25530.50;5052125;28;19927;-83
2022/09/08 06:36:50;;;;;;;;;;;;;;;16.47;99.70;-25530.66;5053130;28;20441;-84
2022/09/08 06:39:20;;;;;;;;;;;;;;;16.56;100.00;-25533.25;5053833;28;19921;-82
2022/09/08 06:41:51;;;;;;;;;;;;;;;16.59;100.00;-25533.97;5035158;28;19925;-80
2022/09/08 06:44:20;;;;;;;;;;;;;;;16.58;100.00;-25533.84;5052102;28;20015;-78
2022/09/08 06:46:46;;;;;;;;;;;;;;;16.56;100.00;-25533.09;5051996;28;20262;-78
2022/09/08 06:49:13;;;;;;;;;;;;;;;16.48;100.00;-25531.09;5053337;28;20035;-81
2022/09/08 06:51:38;;;;;;;;;;;;;;;16.43;100.00;-25529.63;5052063;28;19923;-78
2022/09/08 06:54:10;;;;;;;;;;;;;;;16.37;100.00;-25527.88;5051642;28;19947;-83
2022/09/08 06:56:38;;;;;;;;;;;;;;;16.44;100.00;-25529.91;5051668;28;19924;-85
2022/09/08 06:59:18;;;;;;;;;;;;;;;16.47;100.00;-25530.66;5052204;28;20027;-82
2022/09/08 07:01:49;;;;;;;;;;;;;;;16.55;100.00;-25532.81;5052108;28;20471;-87
2022/09/08 07:04:17;;;;;;;;;;;;;;;16.54;100.00;-25532.53;5052871;28;19917;-84
2022/09/08 07:06:48;;;;;;;;;;;;;;;16.51;100.00;-25531.81;5052829;28;19916;-85
2022/09/08 07:09:32;;;;;;;;;;;;;;;16.56;100.00;-25533.09;5051974;28;19913;-83
2022/09/08 07:12:18;;;;;;;;;;;;;;;16.60;100.00;-25534.28;5052164;28;19917;-84
2022/09/08 07:15:06;;;;;;;;;;;;;;;16.52;100.00;-25532.09;5051512;28;19924;-86
2022/09/08 07:17:47;;;;;;;;;;;;;;;16.54;100.00;-25532.69;5049973;28;19924;-81
2022/09/08 07:20:12;;;;;;;;;;;;;;;16.70;100.00;-25537.16;5051700;28;19924;-80
2022/09/08 07:22:55;;;;;;;;;;;;;;;16.79;100.00;-25539.63;5053538;28;19918;-79
2022/09/08 07:25:35;;;;;;;;;;;;;;;16.79;100.00;-25539.63;5052203;28;19917;-82
2022/09/08 07:28:07;;;;;;;;;;;;;;;16.87;100.00;-25541.97;5053260;28;20015;-81
2022/09/08 07:30:34;;;;;;;;;;;;;;;16.91;100.00;-25543.13;5053530;28;20011;-85
2022/09/08 07:33:19;;;;;;;;;;;;;;;16.94;100.00;-25544.00;5052439;28;19927;-79
2022/09/08 07:35:47;;;;;;;;;;;;;;;16.99;100.00;-25545.44;5053535;28;19916;-86
2022/09/08 07:38:17;;;;;;;;;;;;;;;17.17;100.00;-25550.53;5052328;28;19917;-84
2022/09/08 07:40:44;;;;;;;;;;;;;;;17.16;100.00;-25550.09;5052061;28;20003;-79
2022/09/08 07:43:13;;;;;;;;;;;;;;;17.21;100.00;-25551.53;5052565;28;19921;-80
2022/09/08 07:45:41;;;;;;;;;;;;;;;17.31;100.00;-25554.28;5051837;28;20286;-79
2022/09/08 07:48:10;;;;;;;;;;;;;;;17.19;100.00;-25550.97;5053707;28;19924;-79
2022/09/08 07:50:54;;;;;;;;;;;;;;;17.21;100.00;-25551.53;5052157;28;19912;-79
2022/09/08 07:53:41;;;;;;;;;;;;;;;17.27;100.00;-25553.13;5052427;28;19917;-79
2022/09/08 07:56:22;;;;;;;;;;;;;;;17.48;100.00;-25559.22;5052146;28;19951;-83
2022/09/08 07:58:51;;;;;;;;;;;;;;;17.58;100.00;-25562.13;5056193;28;19917;-79
2022/09/08 08:01:19;;;;;;;;;;;;;;;17.57;100.00;-25561.84;5056248;28;19920;-81
2022/09/08 08:04:04;;;;;;;;;;;;;;;17.49;100.00;-25559.50;5055574;28;20007;-84
2022/09/08 08:06:36;;;;;;;;;;;;;;;17.66;100.00;-25564.28;5045989;28;20384;-80
2022/09/08 08:09:06;;;;;;;;;;;;;;;17.31;100.00;-25554.44;5055681;28;19912;-82
2022/09/08 08:11:34;;;;;;;;;;;;;;;17.50;100.00;-25559.81;5054977;28;19991;-87
2022/09/08 08:14:08;;;;;;;;;;;;;;;17.52;100.00;-25560.38;5054884;28;19913;-79
2022/09/08 08:16:42;;;;;;;;;;;;;;;17.84;100.00;-25569.22;5054833;28;20002;-81
2022/09/08 08:19:30;;;;;;;;;;;;;;;18.83;100.00;-25597.28;5055240;28;20288;-83
2022/09/08 08:22:02;;;;;;;;;;;;;;;19.29;100.00;-25610.16;5040732;28;19944;-82
2022/09/08 08:24:33;;;;;;;;;;;;;;;19.76;100.00;-25623.13;5053094;28;19921;-81
2022/09/08 08:27:13;;;;;;;;;;;;;;;19.76;100.00;-25623.28;5067338;28;19927;-81
2022/09/08 08:30:01;;;;;;;;;;;;;;;19.34;100.00;-25611.44;5077868;28;19925;-86
2022/09/08 08:32:30;;;;;;;;;;;;;;;19.50;100.00;-25616.06;5075768;28;19966;-86
2022/09/08 08:34:58;;;;;;;;;;;;;;;19.40;100.00;-24618.16;5074372;28;19976;-84
2022/09/08 08:37:27;;;;;;;;;;;;;;;18.75;100.00;-22616.31;5075168;28;19917;-85
2022/09/08 08:39:53;;;;;;;;;;;;;;;18.87;100.00;-23281.00;5075162;28;19943;-86
2022/09/08 08:42:37;;;;;;;;;;;;;;;18.62;100.00;-24597.69;5075001;28;19920;-89
2022/09/08 08:45:21;;;;;;;;;;;;;;;18.57;100.00;-25589.91;5074079;28;19921;-85
2022/09/08 08:47:56;;;;;;;;;;;;;;;18.43;100.00;-25586.00;5074220;28;20019;-85
2022/09/08 08:50:34;;;;;;;;;;;;;;;18.63;100.00;-25591.66;5076244;28;19923;-87
2022/09/08 08:53:13;;;;;;;;;;;;;;;19.22;100.00;-25608.13;5075056;28;20368;-86
2022/09/08 08:55:48;;;;;;;;;;;;;;;19.78;100.00;-21646.19;5075245;28;19917;-87
2022/09/08 08:58:31;;;;;;;;;;;;;;;20.17;100.00;-15015.16;5074634;28;19917;-83
2022/09/08 09:00:59;;;;;;;;;;;;;;;20.15;100.00;-4701.28;5075115;28;19935;-83
2022/09/08 09:03:38;;;;;;;;;;;;;;;20.41;100.00;636.28;5069587;28;19927;-90
2022/09/08 09:06:22;;;;;;;;;;;;;;;20.54;100.00;7988.81;5061457;28;19952;-83
2022/09/08 09:09:06;;;;;;;;;;;;;;;20.51;100.00;16693.28;5054182;28;19917;-87
2022/09/08 09:11:43;;;;;;;;;;;;;;;20.51;100.00;29114.69;5054269;28;19916;-86
2022/09/08 09:14:20;;;;;;;;;;;;;;;20.08;100.00;36489.81;5055517;28;19996;-81
2022/09/08 09:16:48;;;;;;;;;;;;;;;20.44;100.00;37188.72;5057793;28;19917;-87
2022/09/08 09:19:26;;;;;;;;;;;;;;;20.19;100.00;41213.91;5053872;28;19917;-85
2022/09/08 09:21:54;;;;;;;;;;;;;;;20.07;100.00;40194.09;5053902;28;19936;-86
2022/09/08 09:24:20;;;;;;;;;;;;;;;20.13;100.00;35146.50;5053011;28;20039;-85
2022/09/08 09:26:48;;;;;;;;;;;;;;;19.91;100.00;35468.34;5054238;28;19956;-83
2022/09/08 09:29:21;;;;;;;;;;;;;;;19.76;100.00;34112.41;5053724;28;19952;-83
2022/09/08 09:31:46;;;;;;;;;;;;;;;19.72;100.00;30748.78;5053496;28;19921;-88
2022/09/08 09:34:32;;;;;;;;;;;;;;;19.66;100.00;27387.00;5068750;28;19927;-85
2022/09/08 09:37:07;;;;;;;;;;;;;;;19.69;100.00;28731.63;5065053;28;19920;-87
2022/09/08 09:39:32;;;;;;;;;;;;;;;19.44;100.00;29388.22;5055790;28;19928;-86
2022/09/08 09:42:04;;;;;;;;;;;;;;;19.41;100.00;26366.31;5055732;28;20273;-88
2022/09/08 09:44:42;;;;;;;;;;;;;;;19.49;100.00;26706.22;5055966;28;19920;-89
2022/09/08 09:47:07;;;;;;;;;;;;;;;19.41;100.00;21003.22;5056351;28;19940;-90
2022/09/08 09:49:51;;;;;;;;;;;;;;;19.48;100.00;16653.69;5056801;28;20361;-87
2022/09/08 09:52:38;;;;;;;;;;;;;;;20.00;100.00;12656.56;5057686;28;20058;-84
2022/09/08 09:55:19;;;;;;;;;;;;;;;20.18;100.00;16680.41;5055793;28;19913;-90
2022/09/08 09:58:03;;;;;;;;;;;;;;;20.04;100.00;27407.81;5055514;28;19923;-84
2022/09/08 10:00:37;;;;;;;;;;;;;;;19.65;100.00;28729.25;5054334;28;20000;-87
2022/09/08 10:03:28;;;;;;;;;;;;;;;19.44;100.00;22679.97;5055313;28;19936;-85
2022/09/08 10:05:56;;;;;;;;;;;;;;;19.55;100.00;21009.75;5048075;28;20004;-85
2022/09/08 10:08:27;;;;;;;;;;;;;;;19.46;100.00;21005.31;5056460;28;19917;-79
2022/09/08 10:10:52;;;;;;;;;;;;;;;19.77;100.00;18339.09;5062441;28;19917;-87
2022/09/08 10:13:21;;;;;;;;;;;;;;;20.11;100.00;31108.44;5045831;28;19932;-86
2022/09/08 10:15:58;;;;;;;;;;;;;;;20.48;100.00;47311.88;5050190;28;19921;-81
2022/09/08 10:18:42;;;;;;;;;;;;;;;20.47;100.00;73746.78;5054824;28;19921;-84
2022/09/08 10:21:17;;;;;;;;;;;;;;;20.77;100.00;84688.44;5034596;28;19921;-89
2022/09/08 10:23:51;;;;;;;;;;;;;;;21.11;100.00;99099.53;5033692;28;19963;-83
2022/09/08 10:26:35;;;;;;;;;;;;;;;21.30;100.00;126635.44;5032981;28;19921;-81
2022/09/08 10:29:01;;;;;;;;;;;;;;;21.04;100.00;148012.16;5050002;28;19980;-83
2022/09/08 10:31:39;;;;;;;;;;;;;;;21.03;100.00;145925.03;5051752;28;19932;-79
2022/09/08 10:34:24;;;;;;;;;;;;;;;21.22;100.00;148055.72;5052582;28;20065;-79
2022/09/08 10:36:56;;;;;;;;;;;;;;;21.21;100.00;148053.16;5053530;28;19920;-79
2022/09/08 10:39:24;;;;;;;;;;;;;;;21.23;100.00;148058.31;5054515;28;19943;-83
2022/09/08 10:41:49;;;;;;;;;;;;;;;21.38;100.00;148096.78;5053405;28;19917;-87
2022/09/08 10:44:26;;;;;;;;;;;;;;;21.55;100.00;148137.81;5053541;28;19921;-83
2022/09/08 10:46:52;;;;;;;;;;;;;;;21.68;100.00;148172.44;5054476;28;19923;-86
2022/09/08 10:49:35;;;;;;;;;;;;;;;21.24;100.00;148062.16;5053007;28;20000;-84
2022/09/08 10:52:19;;;;;;;;;;;;;;;21.04;100.00;148010.91;5053023;28;19917;-84
2022/09/08 10:54:54;;;;;;;;;;;;;;;21.37;100.00;148094.19;5052658;28;20277;-79
2022/09/08 10:57:42;;;;;;;;;;;;;;;21.36;100.00;148091.59;5053084;28;19921;-78
2022/09/08 11:00:18;;;;;;;;;;;;;;;21.61;100.00;148153.19;5033574;28;19917;-85
2022/09/08 11:03:05;;;;;;;;;;;;;;;21.82;100.00;148207.06;5053660;28;19917;-82
2022/09/08 11:05:41;;;;;;;;;;;;;;;21.98;100.00;148245.53;5057151;28;19924;-86
2022/09/08 11:08:16;;;;;;;;;;;;;;;21.81;100.00;148204.53;5053524;28;20059;-82
2022/09/08 11:10:50;;;;;;;;;;;;;;;21.98;100.00;148245.53;5055033;28;19921;-86
2022/09/08 11:13:18;;;;;;;;;;;;;;;21.82;100.00;148207.06;5053923;28;19924;-82
2022/09/08 11:15:56;;;;;;;;;;;;;;;21.60;100.00;148151.94;5051683;28;19917;-85
2022/09/08 11:18:24;;;;;;;;;;;;;;;21.40;100.00;148101.88;5053233;28;19944;-86
2022/09/08 11:20:55;;;;;;;;;;;;;;;21.43;100.00;148109.56;5052792;28;20377;-87
2022/09/08 11:23:21;;;;;;;;;;;;;;;21.71;100.00;148178.88;5054204;28;20318;-83
2022/09/08 11:26:07;;;;;;;;;;;;;;;21.75;100.00;148189.13;5052856;28;19920;-85
2022/09/08 11:28:41;;;;;;;;;;;;;;;21.72;100.00;148181.44;5063343;28;19958;-85
2022/09/08 11:31:07;;;;;;;;;;;;;;;21.36;100.00;148091.59;5059826;28;20695;-83
2022/09/08 11:33:47;;;;;;;;;;;;;;;21.15;100.00;148040.34;5052653;28;19917;-80
2022/09/08 11:36:12;;;;;;;;;;;;;;;20.92;100.00;147981.41;5062636;28;19920;-83
2022/09/08 11:39:04;;;;;;;;;;;;;;;20.85;100.00;147964.75;5060111;28;20329;-87
2022/09/08 11:41:29;;;;;;;;;;;;;;;21.03;100.00;148008.31;5049809;28;19916;-82
2022/09/08 11:43:58;;;;;;;;;;;;;;;21.01;100.00;148003.22;5051463;28;19921;-81
2022/09/08 11:46:37;;;;;;;;;;;;;;;21.15;100.00;148039.09;5043680;28;19917;-76
2022/09/08 11:49:22;;;;;;;;;;;;;;;21.49;100.00;148125.00;5051968;28;19964;-83
2022/09/08 11:51:47;;;;;;;;;;;;;;;21.68;100.00;148171.16;5050996;28;20011;-83
2022/09/08 11:54:13;;;;;;;;;;;;;;;21.62;100.00;148157.03;5052373;28;20403;-81
2022/09/08 11:56:57;;;;;;;;;;;;;;;21.90;100.00;148225.03;5052317;28;19917;-83
2022/09/08 11:59:41;;;;;;;;;;;;;;;22.12;100.00;148281.44;5053655;28;19917;-77
2022/09/08 12:02:10;;;;;;;;;;;;;;;21.96;100.00;148240.41;5051581;28;20058;-84
2022/09/08 12:04:41;;;;;;;;;;;;;;;21.92;100.00;148231.41;5051346;28;19920;-82
2022/09/08 12:07:09;;;;;;;;;;;;;;;21.77;100.00;148194.25;5054465;28;19928;-79
2022/09/08 12:09:41;;;;;;;;;;;;;;;22.07;100.00;148267.34;5040863;28;20358;-85
2022/09/08 12:12:13;;;;;;;;;;;;;;;22.04;100.00;148262.19;5052168;28;19917;-82
2022/09/08 12:14:58;;;;;;;;;;;;;;;21.96;100.00;148241.69;5055039;28;19920;-83
2022/09/08 12:17:33;;;;;;;;;;;;;;;22.31;100.00;148327.66;5051777;28;20376;-86
2022/09/08 12:20:17;;;;;;;;;;;;;;;22.35;100.00;148337.94;5051604;28;19916;-78
2022/09/08 12:22:58;;;;;;;;;;;;;;;22.49;100.00;148373.84;5052924;28;20391;-84
2022/09/08 12:25:36;;;;;;;;;;;;;;;22.59;100.00;148399.53;5053340;28;19920;-85
2022/09/08 12:28:10;;;;;;;;;;;;;;;22.66;100.00;148416.19;5051363;28;19916;-80
2022/09/08 12:31:02;;;;;;;;;;;;;;;22.64;100.00;148409.75;5052338;28;19912;-87
2022/09/08 12:33:39;;;;;;;;;;;;;;;22.41;100.00;148353.34;5053213;28;20078;-86
2022/09/08 12:36:23;;;;;;;;;;;;;;;22.48;100.00;148371.31;5045607;28;19977;-88
2022/09/08 12:39:09;;;;;;;;;;;;;;;22.35;100.00;148337.94;5051057;28;19921;-80
2022/09/08 12:41:47;;;;;;;;;;;;;;;22.29;100.00;148322.50;5049592;28;19924;-84
2022/09/08 12:44:49;;;;;;;;;;;;;;;22.45;100.00;148363.63;5052521;28;19916;-84
2022/09/08 12:47:14;;;;;;;;;;;;;;;22.29;100.00;148323.75;5017351;28;19913;-85
2022/09/08 12:49:48;;;;;;;;;;;;;;;22.35;100.00;148339.19;5047496;28;20445;-84
2022/09/08 12:52:28;;;;;;;;;;;;;;;22.09;100.00;148272.47;5058460;28;19927;-82
2022/09/08 12:54:53;;;;;;;;;;;;;;;22.05;100.00;148263.50;5055690;28;19913;-86
2022/09/08 12:57:28;;;;;;;;;;;;;;;22.28;100.00;148319.91;5054728;28;19927;-84